sensor_id;sensor_type;location;lat;lon;timestamp;P1;durP1;ratioP1;P2;durP2;ratioP2
41943;SDS011;27636;52.610;13.244;2022-07-04T00:01:48;6.35;;;3.58;;
41943;SDS011;27636;52.610;13.244;2022-07-04T00:06:51;8.23;;;3.47;;
41943;SDS011;27636;52.610;13.244;2022-07-04T00:11:55;5.38;;;3.00;;
41943;SDS011;27636;52.610;13.244;2022-07-04T00:16:59;7.18;;;3.10;;
41943;SDS011;27636;52.610;13.244;2022-07-04T00:22:03;5.13;;;2.97;;
41943;SDS011;27636;52.610;13.244;2022-07-04T00:27:07;7.55;;;3.50;;
41943;SDS011;27636;52.610;13.244;2022-07-04T00:32:11;7.75;;;3.90;;
41943;SDS011;27636;52.610;13.244;2022-07-04T00:37:14;5.20;;;3.07;;
41943;SDS011;27636;52.610;13.244;2022-07-04T00:42:18;7.57;;;3.00;;
41943;SDS011;27636;52.610;13.244;2022-07-04T00:47:22;5.55;;;3.47;;
41943;SDS011;27636;52.610;13.244;2022-07-04T00:52:25;6.05;;;3.22;;
41943;SDS011;27636;52.610;13.244;2022-07-04T00:57:29;6.28;;;4.07;;
41943;SDS011;27636;52.610;13.244;2022-07-04T01:02:33;6.93;;;4.00;;
41943;SDS011;27636;52.610;13.244;2022-07-04T01:07:36;6.90;;;3.73;;
41943;SDS011;27636;52.610;13.244;2022-07-04T01:12:39;6.40;;;3.88;;
41943;SDS011;27636;52.610;13.244;2022-07-04T01:17:44;10.82;;;5.03;;
41943;SDS011;27636;52.610;13.244;2022-07-04T01:22:48;10.97;;;5.13;;
41943;SDS011;27636;52.610;13.244;2022-07-04T01:27:51;10.23;;;5.10;;
41943;SDS011;27636;52.610;13.244;2022-07-04T01:32:54;8.43;;;5.10;;
41943;SDS011;27636;52.610;13.244;2022-07-04T01:37:59;7.68;;;4.93;;
41943;SDS011;27636;52.610;13.244;2022-07-04T01:43:02;7.80;;;5.37;;
41943;SDS011;27636;52.610;13.244;2022-07-04T01:48:06;11.18;;;6.13;;
41943;SDS011;27636;52.610;13.244;2022-07-04T01:53:10;9.65;;;5.80;;
41943;SDS011;27636;52.610;13.244;2022-07-04T01:58:13;9.70;;;6.40;;
41943;SDS011;27636;52.610;13.244;2022-07-04T02:03:17;9.57;;;6.22;;
41943;SDS011;27636;52.610;13.244;2022-07-04T02:08:21;10.10;;;7.38;;
41943;SDS011;27636;52.610;13.244;2022-07-04T02:13:24;11.53;;;7.77;;
41943;SDS011;27636;52.610;13.244;2022-07-04T02:18:27;12.20;;;7.53;;
41943;SDS011;27636;52.610;13.244;2022-07-04T02:23:32;11.35;;;8.35;;
41943;SDS011;27636;52.610;13.244;2022-07-04T02:28:34;13.37;;;8.83;;
41943;SDS011;27636;52.610;13.244;2022-07-04T02:33:37;15.68;;;9.23;;
41943;SDS011;27636;52.610;13.244;2022-07-04T02:38:42;12.90;;;9.18;;
41943;SDS011;27636;52.610;13.244;2022-07-04T02:43:45;15.33;;;9.90;;
41943;SDS011;27636;52.610;13.244;2022-07-04T02:48:48;13.25;;;9.55;;
41943;SDS011;27636;52.610;13.244;2022-07-04T02:53:52;15.50;;;9.63;;
41943;SDS011;27636;52.610;13.244;2022-07-04T02:58:55;15.68;;;10.07;;
41943;SDS011;27636;52.610;13.244;2022-07-04T03:03:59;15.57;;;10.30;;
41943;SDS011;27636;52.610;13.244;2022-07-04T03:09:04;15.32;;;10.43;;
41943;SDS011;27636;52.610;13.244;2022-07-04T03:14:07;16.57;;;10.70;;
41943;SDS011;27636;52.610;13.244;2022-07-04T03:19:10;16.58;;;11.32;;
41943;SDS011;27636;52.610;13.244;2022-07-04T03:24:15;20.80;;;10.80;;
41943;SDS011;27636;52.610;13.244;2022-07-04T03:29:18;21.00;;;10.07;;
41943;SDS011;27636;52.610;13.244;2022-07-04T03:34:21;17.70;;;10.93;;
41943;SDS011;27636;52.610;13.244;2022-07-04T03:39:26;18.15;;;10.35;;
41943;SDS011;27636;52.610;13.244;2022-07-04T03:44:29;15.33;;;11.53;;
41943;SDS011;27636;52.610;13.244;2022-07-04T03:49:32;16.85;;;11.40;;
41943;SDS011;27636;52.610;13.244;2022-07-04T03:54:36;14.02;;;10.20;;
41943;SDS011;27636;52.610;13.244;2022-07-04T03:59:39;18.27;;;11.25;;
41943;SDS011;27636;52.610;13.244;2022-07-04T04:04:42;18.58;;;11.60;;
41943;SDS011;27636;52.610;13.244;2022-07-04T04:10:06;18.60;;;10.32;;
41943;SDS011;27636;52.610;13.244;2022-07-04T04:15:11;16.83;;;9.93;;
41943;SDS011;27636;52.610;13.244;2022-07-04T04:20:14;15.43;;;10.07;;
41943;SDS011;27636;52.610;13.244;2022-07-04T04:25:18;13.52;;;9.35;;
41943;SDS011;27636;52.610;13.244;2022-07-04T04:30:21;12.73;;;9.30;;
41943;SDS011;27636;52.610;13.244;2022-07-04T04:35:24;12.60;;;9.07;;
41943;SDS011;27636;52.610;13.244;2022-07-04T04:40:29;16.60;;;9.85;;
41943;SDS011;27636;52.610;13.244;2022-07-04T04:45:32;13.67;;;8.33;;
41943;SDS011;27636;52.610;13.244;2022-07-04T04:50:36;13.82;;;8.35;;
41943;SDS011;27636;52.610;13.244;2022-07-04T04:55:40;11.18;;;7.05;;
41943;SDS011;27636;52.610;13.244;2022-07-04T05:00:43;10.47;;;6.53;;
41943;SDS011;27636;52.610;13.244;2022-07-04T05:06:07;9.15;;;6.45;;
41943;SDS011;27636;52.610;13.244;2022-07-04T05:11:11;11.35;;;6.60;;
41943;SDS011;27636;52.610;13.244;2022-07-04T05:16:14;7.63;;;4.90;;
41943;SDS011;27636;52.610;13.244;2022-07-04T05:21:18;8.98;;;5.68;;
41943;SDS011;27636;52.610;13.244;2022-07-04T05:26:22;12.45;;;7.20;;
41943;SDS011;27636;52.610;13.244;2022-07-04T05:31:26;7.95;;;4.15;;
41943;SDS011;27636;52.610;13.244;2022-07-04T05:36:29;6.57;;;3.90;;
41943;SDS011;27636;52.610;13.244;2022-07-04T05:41:34;6.55;;;2.70;;
41943;SDS011;27636;52.610;13.244;2022-07-04T05:46:37;4.38;;;2.15;;
41943;SDS011;27636;52.610;13.244;2022-07-04T05:51:40;5.00;;;1.60;;
41943;SDS011;27636;52.610;13.244;2022-07-04T05:56:44;2.67;;;1.33;;
41943;SDS011;27636;52.610;13.244;2022-07-04T06:01:48;4.57;;;1.30;;
41943;SDS011;27636;52.610;13.244;2022-07-04T06:06:51;3.42;;;1.92;;
41943;SDS011;27636;52.610;13.244;2022-07-04T06:11:56;2.05;;;1.42;;
41943;SDS011;27636;52.610;13.244;2022-07-04T06:16:59;1.63;;;0.90;;
41943;SDS011;27636;52.610;13.244;2022-07-04T06:22:02;1.40;;;0.85;;
41943;SDS011;27636;52.610;13.244;2022-07-04T06:27:07;3.88;;;1.20;;
41943;SDS011;27636;52.610;13.244;2022-07-04T06:32:10;0.98;;;0.70;;
41943;SDS011;27636;52.610;13.244;2022-07-04T06:37:13;2.50;;;0.80;;
41943;SDS011;27636;52.610;13.244;2022-07-04T06:42:19;3.97;;;1.63;;
41943;SDS011;27636;52.610;13.244;2022-07-04T06:47:24;3.30;;;1.00;;
41943;SDS011;27636;52.610;13.244;2022-07-04T06:52:27;2.42;;;0.95;;
41943;SDS011;27636;52.610;13.244;2022-07-04T06:57:32;2.60;;;1.05;;
41943;SDS011;27636;52.610;13.244;2022-07-04T07:02:35;3.30;;;0.85;;
41943;SDS011;27636;52.610;13.244;2022-07-04T07:07:38;3.72;;;0.98;;
41943;SDS011;27636;52.610;13.244;2022-07-04T07:12:43;6.13;;;1.10;;
41943;SDS011;27636;52.610;13.244;2022-07-04T07:17:46;3.05;;;0.95;;
41943;SDS011;27636;52.610;13.244;2022-07-04T07:22:49;1.73;;;1.00;;
41943;SDS011;27636;52.610;13.244;2022-07-04T07:27:53;4.50;;;1.00;;
41943;SDS011;27636;52.610;13.244;2022-07-04T07:32:56;1.55;;;0.90;;
41943;SDS011;27636;52.610;13.244;2022-07-04T07:38:00;1.90;;;1.25;;
41943;SDS011;27636;52.610;13.244;2022-07-04T07:43:04;3.55;;;1.10;;
41943;SDS011;27636;52.610;13.244;2022-07-04T07:48:09;1.50;;;1.00;;
41943;SDS011;27636;52.610;13.244;2022-07-04T07:53:12;3.72;;;1.75;;
41943;SDS011;27636;52.610;13.244;2022-07-04T07:58:16;1.77;;;0.90;;
41943;SDS011;27636;52.610;13.244;2022-07-04T08:03:19;2.22;;;0.95;;
41943;SDS011;27636;52.610;13.244;2022-07-04T08:08:41;3.47;;;1.20;;
41943;SDS011;27636;52.610;13.244;2022-07-04T08:13:46;6.72;;;0.90;;
41943;SDS011;27636;52.610;13.244;2022-07-04T08:18:50;3.50;;;0.80;;
41943;SDS011;27636;52.610;13.244;2022-07-04T08:23:53;6.35;;;1.15;;
41943;SDS011;27636;52.610;13.244;2022-07-04T08:29:17;2.40;;;1.05;;
41943;SDS011;27636;52.610;13.244;2022-07-04T08:34:21;3.35;;;1.10;;
41943;SDS011;27636;52.610;13.244;2022-07-04T08:39:24;3.70;;;1.00;;
41943;SDS011;27636;52.610;13.244;2022-07-04T08:44:29;6.37;;;1.20;;
41943;SDS011;27636;52.610;13.244;2022-07-04T08:49:33;11.05;;;1.33;;
41943;SDS011;27636;52.610;13.244;2022-07-04T08:54:36;2.17;;;1.00;;
41943;SDS011;27636;52.610;13.244;2022-07-04T09:00:01;2.45;;;1.00;;
41943;SDS011;27636;52.610;13.244;2022-07-04T09:05:07;2.55;;;1.25;;
41943;SDS011;27636;52.610;13.244;2022-07-04T09:10:11;4.82;;;1.23;;
41943;SDS011;27636;52.610;13.244;2022-07-04T09:15:17;4.07;;;1.23;;
41943;SDS011;27636;52.610;13.244;2022-07-04T09:20:22;1.83;;;0.90;;
41943;SDS011;27636;52.610;13.244;2022-07-04T09:25:27;1.48;;;1.00;;
41943;SDS011;27636;52.610;13.244;2022-07-04T09:30:32;2.95;;;1.20;;
41943;SDS011;27636;52.610;13.244;2022-07-04T09:35:35;3.28;;;0.88;;
41943;SDS011;27636;52.610;13.244;2022-07-04T09:40:39;1.30;;;0.80;;
41943;SDS011;27636;52.610;13.244;2022-07-04T09:46:03;1.17;;;0.90;;
41943;SDS011;27636;52.610;13.244;2022-07-04T09:51:07;2.55;;;0.90;;
41943;SDS011;27636;52.610;13.244;2022-07-04T09:56:11;3.50;;;1.00;;
41943;SDS011;27636;52.610;13.244;2022-07-04T10:01:15;3.08;;;1.20;;
41943;SDS011;27636;52.610;13.244;2022-07-04T10:06:22;1.67;;;0.88;;
41943;SDS011;27636;52.610;13.244;2022-07-04T10:11:32;3.28;;;1.17;;
41943;SDS011;27636;52.610;13.244;2022-07-04T10:16:37;3.72;;;1.10;;
41943;SDS011;27636;52.610;13.244;2022-07-04T10:21:41;1.95;;;0.85;;
41943;SDS011;27636;52.610;13.244;2022-07-04T10:26:45;4.28;;;1.45;;
41943;SDS011;27636;52.610;13.244;2022-07-04T10:31:49;3.05;;;1.00;;
41943;SDS011;27636;52.610;13.244;2022-07-04T10:36:53;2.92;;;1.02;;
41943;SDS011;27636;52.610;13.244;2022-07-04T10:42:00;1.27;;;0.88;;
41943;SDS011;27636;52.610;13.244;2022-07-04T10:47:06;2.42;;;0.93;;
41943;SDS011;27636;52.610;13.244;2022-07-04T10:52:30;2.70;;;1.05;;
41943;SDS011;27636;52.610;13.244;2022-07-04T10:57:34;1.98;;;0.88;;
41943;SDS011;27636;52.610;13.244;2022-07-04T11:02:42;3.95;;;0.93;;
41943;SDS011;27636;52.610;13.244;2022-07-04T11:07:56;3.88;;;1.08;;
41943;SDS011;27636;52.610;13.244;2022-07-04T11:13:07;3.53;;;1.05;;
41943;SDS011;27636;52.610;13.244;2022-07-04T11:18:12;5.28;;;1.00;;
41943;SDS011;27636;52.610;13.244;2022-07-04T11:23:16;1.58;;;0.80;;
41943;SDS011;27636;52.610;13.244;2022-07-04T11:28:25;2.33;;;1.10;;
41943;SDS011;27636;52.610;13.244;2022-07-04T11:33:53;5.33;;;0.87;;
41943;SDS011;27636;52.610;13.244;2022-07-04T11:38:57;4.03;;;0.90;;
41943;SDS011;27636;52.610;13.244;2022-07-04T11:44:05;3.63;;;0.98;;
41943;SDS011;27636;52.610;13.244;2022-07-04T11:49:29;4.35;;;1.35;;
41943;SDS011;27636;52.610;13.244;2022-07-04T11:54:32;1.25;;;0.73;;
41943;SDS011;27636;52.610;13.244;2022-07-04T11:59:55;2.47;;;0.90;;
41943;SDS011;27636;52.610;13.244;2022-07-04T12:05:02;2.10;;;0.85;;
41943;SDS011;27636;52.610;13.244;2022-07-04T12:10:07;1.30;;;0.80;;
41943;SDS011;27636;52.610;13.244;2022-07-04T12:15:11;1.30;;;0.80;;
41943;SDS011;27636;52.610;13.244;2022-07-04T12:20:19;2.50;;;1.00;;
41943;SDS011;27636;52.610;13.244;2022-07-04T12:25:24;1.67;;;0.88;;
41943;SDS011;27636;52.610;13.244;2022-07-04T12:30:31;2.95;;;0.70;;
41943;SDS011;27636;52.610;13.244;2022-07-04T12:35:42;2.15;;;0.93;;
41943;SDS011;27636;52.610;13.244;2022-07-04T12:46:11;2.10;;;0.80;;
41943;SDS011;27636;52.610;13.244;2022-07-04T12:51:18;3.28;;;0.90;;
41943;SDS011;27636;52.610;13.244;2022-07-04T12:56:29;1.50;;;0.70;;
41943;SDS011;27636;52.610;13.244;2022-07-04T13:01:34;1.88;;;0.80;;
41943;SDS011;27636;52.610;13.244;2022-07-04T13:06:39;4.05;;;0.90;;
41943;SDS011;27636;52.610;13.244;2022-07-04T13:11:43;1.52;;;0.75;;
41943;SDS011;27636;52.610;13.244;2022-07-04T13:17:05;1.02;;;0.80;;
41943;SDS011;27636;52.610;13.244;2022-07-04T13:22:10;1.73;;;0.70;;
41943;SDS011;27636;52.610;13.244;2022-07-04T13:27:13;2.13;;;0.80;;
41943;SDS011;27636;52.610;13.244;2022-07-04T13:32:16;1.97;;;0.80;;
41943;SDS011;27636;52.610;13.244;2022-07-04T13:37:21;1.93;;;0.90;;
41943;SDS011;27636;52.610;13.244;2022-07-04T13:42:24;11.20;;;1.23;;
41943;SDS011;27636;52.610;13.244;2022-07-04T13:47:46;1.13;;;0.80;;
41943;SDS011;27636;52.610;13.244;2022-07-04T13:52:51;2.30;;;1.00;;
41943;SDS011;27636;52.610;13.244;2022-07-04T13:57:55;2.35;;;1.00;;
41943;SDS011;27636;52.610;13.244;2022-07-04T14:02:58;1.60;;;0.90;;
41943;SDS011;27636;52.610;13.244;2022-07-04T14:08:03;1.65;;;0.82;;
41943;SDS011;27636;52.610;13.244;2022-07-04T14:13:07;2.22;;;0.77;;
41943;SDS011;27636;52.610;13.244;2022-07-04T14:18:12;2.63;;;0.98;;
41943;SDS011;27636;52.610;13.244;2022-07-04T14:28:39;3.85;;;0.80;;
41943;SDS011;27636;52.610;13.244;2022-07-04T14:38:50;3.97;;;1.15;;
41943;SDS011;27636;52.610;13.244;2022-07-04T14:43:53;4.28;;;1.10;;
41943;SDS011;27636;52.610;13.244;2022-07-04T14:48:57;12.15;;;6.78;;
41943;SDS011;27636;52.610;13.244;2022-07-04T14:54:02;1.43;;;0.90;;
41943;SDS011;27636;52.610;13.244;2022-07-04T14:59:06;2.95;;;1.00;;
41943;SDS011;27636;52.610;13.244;2022-07-04T15:04:09;7.32;;;5.18;;
41943;SDS011;27636;52.610;13.244;2022-07-04T15:09:14;6.13;;;1.33;;
41943;SDS011;27636;52.610;13.244;2022-07-04T15:14:20;1.23;;;0.90;;
41943;SDS011;27636;52.610;13.244;2022-07-04T15:19:23;2.10;;;1.10;;
41943;SDS011;27636;52.610;13.244;2022-07-04T15:24:28;2.38;;;1.05;;
41943;SDS011;27636;52.610;13.244;2022-07-04T15:29:32;3.25;;;1.20;;
41943;SDS011;27636;52.610;13.244;2022-07-04T15:34:35;11.82;;;7.43;;
41943;SDS011;27636;52.610;13.244;2022-07-04T15:39:48;3.40;;;0.95;;
41943;SDS011;27636;52.610;13.244;2022-07-04T15:44:53;2.78;;;1.10;;
41943;SDS011;27636;52.610;13.244;2022-07-04T15:50:01;2.58;;;0.95;;
41943;SDS011;27636;52.610;13.244;2022-07-04T15:55:06;2.55;;;0.90;;
41943;SDS011;27636;52.610;13.244;2022-07-04T16:00:15;3.72;;;1.08;;
41943;SDS011;27636;52.610;13.244;2022-07-04T16:05:19;2.42;;;1.25;;
41943;SDS011;27636;52.610;13.244;2022-07-04T16:10:24;4.50;;;1.42;;
41943;SDS011;27636;52.610;13.244;2022-07-04T16:15:27;2.30;;;1.15;;
41943;SDS011;27636;52.610;13.244;2022-07-04T16:20:31;0.88;;;0.80;;
41943;SDS011;27636;52.610;13.244;2022-07-04T16:25:35;1.63;;;1.00;;
41943;SDS011;27636;52.610;13.244;2022-07-04T16:30:38;2.17;;;1.20;;
41943;SDS011;27636;52.610;13.244;2022-07-04T16:35:42;3.40;;;0.85;;
41943;SDS011;27636;52.610;13.244;2022-07-04T16:40:46;4.77;;;0.80;;
41943;SDS011;27636;52.610;13.244;2022-07-04T16:45:50;4.50;;;0.80;;
41943;SDS011;27636;52.610;13.244;2022-07-04T16:50:53;2.42;;;1.20;;
41943;SDS011;27636;52.610;13.244;2022-07-04T16:55:58;2.42;;;0.95;;
41943;SDS011;27636;52.610;13.244;2022-07-04T17:01:01;2.03;;;0.80;;
41943;SDS011;27636;52.610;13.244;2022-07-04T17:06:05;2.00;;;1.05;;
41943;SDS011;27636;52.610;13.244;2022-07-04T17:11:09;4.90;;;1.15;;
41943;SDS011;27636;52.610;13.244;2022-07-04T17:21:16;1.83;;;1.00;;
41943;SDS011;27636;52.610;13.244;2022-07-04T17:26:20;2.03;;;0.73;;
41943;SDS011;27636;52.610;13.244;2022-07-04T17:31:25;2.70;;;0.70;;
41943;SDS011;27636;52.610;13.244;2022-07-04T17:36:29;2.92;;;1.10;;
41943;SDS011;27636;52.610;13.244;2022-07-04T17:41:34;1.35;;;0.90;;
41943;SDS011;27636;52.610;13.244;2022-07-04T17:46:43;1.98;;;0.88;;
41943;SDS011;27636;52.610;13.244;2022-07-04T17:51:47;1.70;;;0.80;;
41943;SDS011;27636;52.610;13.244;2022-07-04T17:56:53;3.83;;;1.50;;
41943;SDS011;27636;52.610;13.244;2022-07-04T18:06:59;4.80;;;1.10;;
41943;SDS011;27636;52.610;13.244;2022-07-04T18:12:04;3.83;;;1.05;;
41943;SDS011;27636;52.610;13.244;2022-07-04T18:17:07;2.65;;;1.00;;
41943;SDS011;27636;52.610;13.244;2022-07-04T18:22:10;2.10;;;1.00;;
41943;SDS011;27636;52.610;13.244;2022-07-04T18:27:15;1.98;;;1.00;;
41943;SDS011;27636;52.610;13.244;2022-07-04T18:32:19;2.55;;;1.10;;
41943;SDS011;27636;52.610;13.244;2022-07-04T18:37:22;4.45;;;1.10;;
41943;SDS011;27636;52.610;13.244;2022-07-04T18:42:27;1.65;;;0.90;;
41943;SDS011;27636;52.610;13.244;2022-07-04T18:47:50;3.42;;;1.00;;
41943;SDS011;27636;52.610;13.244;2022-07-04T18:52:53;2.90;;;1.13;;
41943;SDS011;27636;52.610;13.244;2022-07-04T18:57:57;2.20;;;1.00;;
41943;SDS011;27636;52.610;13.244;2022-07-04T19:03:00;2.58;;;1.05;;
41943;SDS011;27636;52.610;13.244;2022-07-04T19:08:04;2.30;;;1.20;;
41943;SDS011;27636;52.610;13.244;2022-07-04T19:13:09;3.55;;;1.48;;
41943;SDS011;27636;52.610;13.244;2022-07-04T19:18:12;5.82;;;1.83;;
41943;SDS011;27636;52.610;13.244;2022-07-04T19:23:17;4.78;;;1.60;;
41943;SDS011;27636;52.610;13.244;2022-07-04T19:28:21;5.57;;;1.40;;
41943;SDS011;27636;52.610;13.244;2022-07-04T19:33:25;3.92;;;1.27;;
41943;SDS011;27636;52.610;13.244;2022-07-04T19:38:29;3.08;;;1.40;;
41943;SDS011;27636;52.610;13.244;2022-07-04T19:43:34;4.38;;;1.60;;
41943;SDS011;27636;52.610;13.244;2022-07-04T19:48:37;3.72;;;1.60;;
41943;SDS011;27636;52.610;13.244;2022-07-04T19:53:40;3.78;;;1.73;;
41943;SDS011;27636;52.610;13.244;2022-07-04T19:58:45;2.83;;;1.48;;
41943;SDS011;27636;52.610;13.244;2022-07-04T20:03:48;4.57;;;1.80;;
41943;SDS011;27636;52.610;13.244;2022-07-04T20:08:52;5.35;;;1.65;;
41943;SDS011;27636;52.610;13.244;2022-07-04T20:13:56;2.70;;;1.35;;
41943;SDS011;27636;52.610;13.244;2022-07-04T20:18:59;6.67;;;1.63;;
41943;SDS011;27636;52.610;13.244;2022-07-04T20:24:04;4.20;;;1.80;;
41943;SDS011;27636;52.610;13.244;2022-07-04T20:29:09;4.20;;;1.60;;
41943;SDS011;27636;52.610;13.244;2022-07-04T20:39:16;3.30;;;1.60;;
41943;SDS011;27636;52.610;13.244;2022-07-04T20:44:21;3.58;;;1.50;;
41943;SDS011;27636;52.610;13.244;2022-07-04T20:49:24;4.43;;;1.57;;
41943;SDS011;27636;52.610;13.244;2022-07-04T20:54:27;4.85;;;1.60;;
41943;SDS011;27636;52.610;13.244;2022-07-04T20:59:31;18.95;;;2.28;;
41943;SDS011;27636;52.610;13.244;2022-07-04T21:04:35;3.70;;;1.80;;
41943;SDS011;27636;52.610;13.244;2022-07-04T21:09:56;5.22;;;1.95;;
41943;SDS011;27636;52.610;13.244;2022-07-04T21:15:01;8.98;;;2.08;;
41943;SDS011;27636;52.610;13.244;2022-07-04T21:20:05;4.57;;;1.85;;
41943;SDS011;27636;52.610;13.244;2022-07-04T21:25:08;4.68;;;2.05;;
41943;SDS011;27636;52.610;13.244;2022-07-04T21:30:13;4.90;;;1.92;;
41943;SDS011;27636;52.610;13.244;2022-07-04T21:35:17;5.18;;;1.98;;
41943;SDS011;27636;52.610;13.244;2022-07-04T21:40:29;4.18;;;1.85;;
41943;SDS011;27636;52.610;13.244;2022-07-04T21:45:34;6.88;;;2.53;;
41943;SDS011;27636;52.610;13.244;2022-07-04T21:50:37;6.23;;;2.23;;
41943;SDS011;27636;52.610;13.244;2022-07-04T21:55:41;4.78;;;2.08;;
41943;SDS011;27636;52.610;13.244;2022-07-04T22:00:45;8.65;;;2.70;;
41943;SDS011;27636;52.610;13.244;2022-07-04T22:05:48;5.33;;;2.57;;
41943;SDS011;27636;52.610;13.244;2022-07-04T22:10:51;5.30;;;2.55;;
41943;SDS011;27636;52.610;13.244;2022-07-04T22:15:56;5.35;;;2.28;;
41943;SDS011;27636;52.610;13.244;2022-07-04T22:21:00;5.45;;;2.50;;
41943;SDS011;27636;52.610;13.244;2022-07-04T22:26:04;3.67;;;2.00;;
41943;SDS011;27636;52.610;13.244;2022-07-04T22:31:09;4.60;;;2.10;;
41943;SDS011;27636;52.610;13.244;2022-07-04T22:36:12;5.03;;;2.55;;
41943;SDS011;27636;52.610;13.244;2022-07-04T22:41:15;6.32;;;2.80;;
41943;SDS011;27636;52.610;13.244;2022-07-04T22:46:20;5.00;;;2.15;;
41943;SDS011;27636;52.610;13.244;2022-07-04T22:51:24;4.15;;;2.00;;
41943;SDS011;27636;52.610;13.244;2022-07-04T22:56:28;5.53;;;2.13;;
41943;SDS011;27636;52.610;13.244;2022-07-04T23:01:33;3.85;;;2.08;;
41943;SDS011;27636;52.610;13.244;2022-07-04T23:06:36;5.10;;;2.17;;
41943;SDS011;27636;52.610;13.244;2022-07-04T23:11:39;6.30;;;2.30;;
41943;SDS011;27636;52.610;13.244;2022-07-04T23:16:44;5.20;;;2.15;;
41943;SDS011;27636;52.610;13.244;2022-07-04T23:21:47;8.25;;;2.30;;
41943;SDS011;27636;52.610;13.244;2022-07-04T23:26:50;5.63;;;2.53;;
41943;SDS011;27636;52.610;13.244;2022-07-04T23:31:54;4.65;;;2.08;;
41943;SDS011;27636;52.610;13.244;2022-07-04T23:36:58;4.72;;;2.10;;
41943;SDS011;27636;52.610;13.244;2022-07-04T23:42:01;5.03;;;2.42;;
41943;SDS011;27636;52.610;13.244;2022-07-04T23:47:05;4.13;;;1.90;;
41943;SDS011;27636;52.610;13.244;2022-07-04T23:52:09;6.17;;;2.53;;
41943;SDS011;27636;52.610;13.244;2022-07-04T23:57:12;5.80;;;1.90;;
